Impacts TAF Board
For situational awareness. Not to be used for flight planning purposes.
IDs:

KCVG - Cincinnati Intl, KY, US

Issued at 1720 UTC 22 Sep 2018
Updated at 1855 UTC 22 Sep 2018
Potential Impact None Slight Moderate High
Time1852Z 22/19Z 22/20Z 22/21Z 22/22Z 22/23Z 23/00Z 23/01Z 23/02Z 23/03Z 23/04Z 23/05Z 23/06Z 23/07Z>>
Type OBS PRVL PRVL PRVL PRVL PRVL PRVL PRVL PRVL PRVL PRVL PRVL PRVL PRVL
VIS 9 >6 >6 >6 >6 >6 >6 >6 >6 >6 >6 >6 >6 >6
CIG 100 100 100 100 100 90 90 90 90 90 90 60 60 60
Cover OVC OVC OVC OVC OVC OVC OVC OVC OVC OVC OVC OVC OVC OVC
FltCat VFR VFR VFR VFR VFR VFR VFR VFR VFR VFR VFR VFR VFR VFR
WX -RA VCSH VCSH VCSH VCSH -- -- -- -- -- -- -- -- --
WDir 10 50 50 50 50 50 50 50 50 50 50 60 60 60
WSpd 6 10 10 10 10 8 8 8 8 8 8 6 6 6
WGst -- -- -- -- -- -- -- -- -- -- -- -- -- --
Raw TAF
KCVG 221720Z 2218/2324 05010KT P6SM VCSH SCT060 OVC100
  FM222300 05008KT P6SM OVC090
  FM230500 06006KT P6SM OVC060
  FM230800 06006KT P6SM VCSH BKN050
  FM231200 05006KT P6SM BKN050
  FM231800 08008KT P6SM BKN040


Raw METAR
KCVG 221852Z 01006KT 9SM -RA BKN100 OVC120 17/14 A3020 RMK AO2 SLP219 P0001 T01670144
KCVG 221752Z 04008KT 9SM -RA OVC110 17/14 A3021 RMK AO2 RAB1653 SLP224 P0002 60002 T01670139 10178 20161 58006
KCVG 221652Z 03009KT 10SM FEW055 BKN090 OVC110 17/12 A3023 RMK AO2 SLP231 T01720122
KCVG 221552Z 05011KT 10SM FEW070 SCT095 BKN120 17/12 A3024 RMK AO2 SLP232 T01720122

METAR Board
Radar Display
Forecast Discussion
For situational awareness. Not to be used for flight planning purposes.